sensor_id;sensor_type;location;lat;lon;timestamp;pressure;altitude;pressure_sealevel;temperature;humidity
15314;BME280;7757;52.626;4.746;2023-05-21T00:00:47;101944.81;;;13.84;77.86
15314;BME280;7757;52.626;4.746;2023-05-21T00:03:13;101937.88;;;13.90;77.72
15314;BME280;7757;52.626;4.746;2023-05-21T00:05:39;101936.72;;;14.59;76.26
15314;BME280;7757;52.626;4.746;2023-05-21T00:08:05;101935.81;;;13.92;77.15
15314;BME280;7757;52.626;4.746;2023-05-21T00:10:30;101932.41;;;13.98;77.56
15314;BME280;7757;52.626;4.746;2023-05-21T00:12:56;101942.00;;;14.15;76.87
15314;BME280;7757;52.626;4.746;2023-05-21T00:15:21;101924.81;;;14.68;75.04
15314;BME280;7757;52.626;4.746;2023-05-21T00:17:46;101933.75;;;14.69;74.72
15314;BME280;7757;52.626;4.746;2023-05-21T00:20:12;101923.78;;;14.03;76.50
15314;BME280;7757;52.626;4.746;2023-05-21T00:22:37;101923.47;;;13.83;78.50
15314;BME280;7757;52.626;4.746;2023-05-21T00:25:04;101933.19;;;14.07;77.33
15314;BME280;7757;52.626;4.746;2023-05-21T00:27:30;101930.19;;;13.79;77.61
15314;BME280;7757;52.626;4.746;2023-05-21T00:29:56;101929.56;;;14.14;77.26
15314;BME280;7757;52.626;4.746;2023-05-21T00:32:21;101925.81;;;14.01;77.79
15314;BME280;7757;52.626;4.746;2023-05-21T00:34:47;101923.94;;;14.24;76.97
15314;BME280;7757;52.626;4.746;2023-05-21T00:37:12;101900.97;;;13.98;77.17
15314;BME280;7757;52.626;4.746;2023-05-21T00:39:39;101914.56;;;14.20;77.31
15314;BME280;7757;52.626;4.746;2023-05-21T00:42:05;101922.06;;;14.24;77.59
15314;BME280;7757;52.626;4.746;2023-05-21T00:44:30;101922.56;;;14.28;77.59
15314;BME280;7757;52.626;4.746;2023-05-21T00:46:59;101921.13;;;14.40;76.86
15314;BME280;7757;52.626;4.746;2023-05-21T00:49:26;101909.31;;;14.56;75.59
15314;BME280;7757;52.626;4.746;2023-05-21T00:51:52;101910.00;;;14.20;76.49
15314;BME280;7757;52.626;4.746;2023-05-21T00:54:19;101916.00;;;14.45;76.60
15314;BME280;7757;52.626;4.746;2023-05-21T00:56:47;101903.19;;;14.32;77.39
15314;BME280;7757;52.626;4.746;2023-05-21T00:59:16;101902.06;;;14.71;75.12
15314;BME280;7757;52.626;4.746;2023-05-21T01:01:43;101907.41;;;14.49;75.24
15314;BME280;7757;52.626;4.746;2023-05-21T01:04:10;101898.09;;;14.67;75.98
15314;BME280;7757;52.626;4.746;2023-05-21T01:06:36;101893.72;;;14.51;76.19
15314;BME280;7757;52.626;4.746;2023-05-21T01:09:02;101884.44;;;14.39;76.08
15314;BME280;7757;52.626;4.746;2023-05-21T01:11:43;101901.31;;;14.77;75.39
15314;BME280;7757;52.626;4.746;2023-05-21T01:14:11;101900.69;;;14.75;74.49
15314;BME280;7757;52.626;4.746;2023-05-21T01:16:38;101889.94;;;14.60;75.68
15314;BME280;7757;52.626;4.746;2023-05-21T01:19:05;101870.25;;;14.60;74.54
15314;BME280;7757;52.626;4.746;2023-05-21T01:21:36;101896.53;;;14.43;76.44
15314;BME280;7757;52.626;4.746;2023-05-21T01:24:04;101885.94;;;14.41;76.34
15314;BME280;7757;52.626;4.746;2023-05-21T01:26:32;101865.41;;;14.70;74.73
15314;BME280;7757;52.626;4.746;2023-05-21T01:29:03;101880.91;;;14.68;75.00
15314;BME280;7757;52.626;4.746;2023-05-21T01:37:35;101882.97;;;14.51;75.46
15314;BME280;7757;52.626;4.746;2023-05-21T01:40:08;101885.66;;;14.36;76.93
15314;BME280;7757;52.626;4.746;2023-05-21T01:42:35;101876.66;;;14.44;76.45
15314;BME280;7757;52.626;4.746;2023-05-21T01:45:03;101880.19;;;14.44;76.82
15314;BME280;7757;52.626;4.746;2023-05-21T01:47:31;101867.66;;;14.66;74.98
15314;BME280;7757;52.626;4.746;2023-05-21T01:49:58;101884.78;;;14.94;74.86
15314;BME280;7757;52.626;4.746;2023-05-21T01:52:25;101872.75;;;14.61;75.91
15314;BME280;7757;52.626;4.746;2023-05-21T01:54:50;101881.63;;;14.91;74.67
15314;BME280;7757;52.626;4.746;2023-05-21T01:57:19;101878.69;;;14.71;75.73
15314;BME280;7757;52.626;4.746;2023-05-21T01:59:45;101876.09;;;14.63;76.00
15314;BME280;7757;52.626;4.746;2023-05-21T02:02:11;101871.47;;;14.57;76.53
15314;BME280;7757;52.626;4.746;2023-05-21T02:04:37;101882.66;;;14.90;75.56
15314;BME280;7757;52.626;4.746;2023-05-21T02:07:06;101892.25;;;14.63;75.49
15314;BME280;7757;52.626;4.746;2023-05-21T02:09:31;101863.56;;;14.70;75.39
15314;BME280;7757;52.626;4.746;2023-05-21T02:11:57;101859.38;;;14.53;76.13
15314;BME280;7757;52.626;4.746;2023-05-21T02:14:22;101856.66;;;14.82;75.47
15314;BME280;7757;52.626;4.746;2023-05-21T02:16:49;101883.38;;;14.98;74.85
15314;BME280;7757;52.626;4.746;2023-05-21T02:19:16;101888.59;;;14.85;75.48
15314;BME280;7757;52.626;4.746;2023-05-21T02:21:42;101852.84;;;14.77;75.01
15314;BME280;7757;52.626;4.746;2023-05-21T02:24:07;101851.38;;;14.74;75.32
15314;BME280;7757;52.626;4.746;2023-05-21T02:26:32;101878.91;;;15.05;74.44
15314;BME280;7757;52.626;4.746;2023-05-21T02:28:58;101851.38;;;14.74;76.01
15314;BME280;7757;52.626;4.746;2023-05-21T02:31:23;101888.56;;;15.00;75.84
15314;BME280;7757;52.626;4.746;2023-05-21T02:33:48;101881.53;;;14.99;74.66
15314;BME280;7757;52.626;4.746;2023-05-21T02:36:14;101880.59;;;14.92;75.40
15314;BME280;7757;52.626;4.746;2023-05-21T02:38:43;101871.53;;;14.78;76.35
15314;BME280;7757;52.626;4.746;2023-05-21T02:41:11;101884.31;;;14.76;76.33
15314;BME280;7757;52.626;4.746;2023-05-21T02:43:36;101888.78;;;14.98;75.61
15314;BME280;7757;52.626;4.746;2023-05-21T02:46:04;101882.22;;;14.72;77.09
15314;BME280;7757;52.626;4.746;2023-05-21T02:48:30;101897.03;;;14.82;76.33
15314;BME280;7757;52.626;4.746;2023-05-21T02:50:55;101888.78;;;14.98;75.72
15314;BME280;7757;52.626;4.746;2023-05-21T02:53:20;101887.25;;;15.11;74.60
15314;BME280;7757;52.626;4.746;2023-05-21T02:55:46;101883.81;;;15.17;74.82
15314;BME280;7757;52.626;4.746;2023-05-21T02:58:11;101879.22;;;15.32;73.96
15314;BME280;7757;52.626;4.746;2023-05-21T03:00:37;101854.88;;;14.89;74.77
15314;BME280;7757;52.626;4.746;2023-05-21T03:03:03;101873.53;;;14.91;75.92
15314;BME280;7757;52.626;4.746;2023-05-21T03:05:28;101844.22;;;14.81;75.31
15314;BME280;7757;52.626;4.746;2023-05-21T03:07:54;101866.34;;;15.13;74.81
15314;BME280;7757;52.626;4.746;2023-05-21T03:10:20;101885.06;;;15.21;74.06
15314;BME280;7757;52.626;4.746;2023-05-21T03:12:45;101875.84;;;15.08;75.20
15314;BME280;7757;52.626;4.746;2023-05-21T03:15:11;101866.38;;;14.98;74.32
15314;BME280;7757;52.626;4.746;2023-05-21T03:17:39;101870.19;;;15.25;74.74
15314;BME280;7757;52.626;4.746;2023-05-21T03:20:07;101851.84;;;14.78;75.79
15314;BME280;7757;52.626;4.746;2023-05-21T03:22:33;101864.31;;;15.00;75.58
15314;BME280;7757;52.626;4.746;2023-05-21T03:24:59;101866.03;;;14.86;75.54
15314;BME280;7757;52.626;4.746;2023-05-21T03:27:26;101863.75;;;15.04;75.70
15314;BME280;7757;52.626;4.746;2023-05-21T03:29:51;101869.16;;;15.04;75.45
15314;BME280;7757;52.626;4.746;2023-05-21T03:32:19;101830.34;;;14.99;74.50
15314;BME280;7757;52.626;4.746;2023-05-21T03:34:44;101859.78;;;15.00;75.24
15314;BME280;7757;52.626;4.746;2023-05-21T03:37:10;101859.13;;;14.98;75.35
15314;BME280;7757;52.626;4.746;2023-05-21T03:39:35;101855.31;;;15.07;75.04
15314;BME280;7757;52.626;4.746;2023-05-21T03:42:00;101858.03;;;14.93;75.83
15314;BME280;7757;52.626;4.746;2023-05-21T03:44:29;101858.13;;;14.99;75.82
15314;BME280;7757;52.626;4.746;2023-05-21T03:46:56;101861.53;;;15.08;75.62
15314;BME280;7757;52.626;4.746;2023-05-21T03:49:24;101865.28;;;14.92;75.75
15314;BME280;7757;52.626;4.746;2023-05-21T03:51:50;101845.84;;;14.97;75.34
15314;BME280;7757;52.626;4.746;2023-05-21T03:54:15;101859.69;;;14.94;76.15
15314;BME280;7757;52.626;4.746;2023-05-21T03:56:41;101863.72;;;14.83;76.70
15314;BME280;7757;52.626;4.746;2023-05-21T03:59:06;101860.25;;;14.89;75.63
15314;BME280;7757;52.626;4.746;2023-05-21T04:01:31;101861.66;;;14.85;76.38
15314;BME280;7757;52.626;4.746;2023-05-21T04:03:57;101866.88;;;14.87;76.72
15314;BME280;7757;52.626;4.746;2023-05-21T04:06:22;101861.38;;;14.95;75.57
15314;BME280;7757;52.626;4.746;2023-05-21T04:08:48;101868.13;;;15.05;76.12
15314;BME280;7757;52.626;4.746;2023-05-21T04:11:14;101869.44;;;14.95;76.54
15314;BME280;7757;52.626;4.746;2023-05-21T04:13:39;101851.59;;;15.08;75.36
15314;BME280;7757;52.626;4.746;2023-05-21T04:16:05;101872.91;;;14.89;76.83
15314;BME280;7757;52.626;4.746;2023-05-21T04:18:33;101867.63;;;15.17;76.53
15314;BME280;7757;52.626;4.746;2023-05-21T04:20:58;101876.59;;;15.02;76.55
15314;BME280;7757;52.626;4.746;2023-05-21T04:23:24;101870.19;;;14.89;77.47
15314;BME280;7757;52.626;4.746;2023-05-21T04:25:50;101866.06;;;15.07;76.43
15314;BME280;7757;52.626;4.746;2023-05-21T04:28:15;101869.16;;;15.04;76.34
15314;BME280;7757;52.626;4.746;2023-05-21T04:30:45;101842.03;;;14.91;76.82
15314;BME280;7757;52.626;4.746;2023-05-21T04:33:10;101853.38;;;15.01;75.49
15314;BME280;7757;52.626;4.746;2023-05-21T04:35:36;101871.47;;;15.07;76.24
15314;BME280;7757;52.626;4.746;2023-05-21T04:38:01;101869.56;;;14.87;77.53
15314;BME280;7757;52.626;4.746;2023-05-21T04:40:35;101871.59;;;14.99;76.78
15314;BME280;7757;52.626;4.746;2023-05-21T04:43:00;101867.19;;;15.13;76.33
15314;BME280;7757;52.626;4.746;2023-05-21T04:45:26;101875.16;;;15.42;74.49
15314;BME280;7757;52.626;4.746;2023-05-21T04:47:51;101876.28;;;15.12;75.28
15314;BME280;7757;52.626;4.746;2023-05-21T04:50:17;101869.53;;;15.01;75.92
15314;BME280;7757;52.626;4.746;2023-05-21T04:52:42;101878.75;;;15.28;75.01
15314;BME280;7757;52.626;4.746;2023-05-21T04:55:09;101880.84;;;15.33;75.04
15314;BME280;7757;52.626;4.746;2023-05-21T04:57:35;101874.75;;;15.24;75.40
15314;BME280;7757;52.626;4.746;2023-05-21T05:00:01;101875.72;;;15.52;74.30
15314;BME280;7757;52.626;4.746;2023-05-21T05:02:27;101870.28;;;15.74;72.80
15314;BME280;7757;52.626;4.746;2023-05-21T05:04:53;101866.41;;;15.83;73.26
15314;BME280;7757;52.626;4.746;2023-05-21T05:07:18;101873.53;;;16.18;71.81
15314;BME280;7757;52.626;4.746;2023-05-21T05:09:44;101871.25;;;16.49;70.52
15314;BME280;7757;52.626;4.746;2023-05-21T05:12:09;101860.00;;;16.46;70.42
15314;BME280;7757;52.626;4.746;2023-05-21T05:14:34;101860.19;;;16.38;71.18
15314;BME280;7757;52.626;4.746;2023-05-21T05:17:00;101858.31;;;16.38;70.67
15314;BME280;7757;52.626;4.746;2023-05-21T05:19:26;101846.63;;;16.31;70.73
15314;BME280;7757;52.626;4.746;2023-05-21T05:21:51;101855.63;;;16.38;70.80
15314;BME280;7757;52.626;4.746;2023-05-21T05:24:17;101857.66;;;16.36;71.33
15314;BME280;7757;52.626;4.746;2023-05-21T05:26:42;101851.41;;;16.63;71.33
15314;BME280;7757;52.626;4.746;2023-05-21T05:29:10;101852.78;;;16.94;70.56
15314;BME280;7757;52.626;4.746;2023-05-21T05:31:36;101852.63;;;17.08;70.35
15314;BME280;7757;52.626;4.746;2023-05-21T05:34:01;101853.47;;;17.22;70.29
15314;BME280;7757;52.626;4.746;2023-05-21T05:36:27;101862.25;;;17.24;71.05
15314;BME280;7757;52.626;4.746;2023-05-21T05:38:52;101826.25;;;17.23;69.72
15314;BME280;7757;52.626;4.746;2023-05-21T05:41:17;101852.63;;;17.21;71.55
15314;BME280;7757;52.626;4.746;2023-05-21T05:43:43;101858.09;;;17.35;70.65
15314;BME280;7757;52.626;4.746;2023-05-21T05:46:08;101849.00;;;17.81;69.21
15314;BME280;7757;52.626;4.746;2023-05-21T05:48:34;101850.66;;;17.96;68.41
15314;BME280;7757;52.626;4.746;2023-05-21T05:51:00;101848.78;;;18.03;68.10
15314;BME280;7757;52.626;4.746;2023-05-21T05:53:25;101837.16;;;18.66;66.55
15314;BME280;7757;52.626;4.746;2023-05-21T05:55:50;101843.84;;;19.46;63.49
15314;BME280;7757;52.626;4.746;2023-05-21T05:58:16;101847.53;;;18.05;67.20
15314;BME280;7757;52.626;4.746;2023-05-21T06:00:41;101841.31;;;17.85;68.52
15314;BME280;7757;52.626;4.746;2023-05-21T06:03:06;101846.91;;;17.90;68.59
15314;BME280;7757;52.626;4.746;2023-05-21T06:05:32;101839.41;;;17.53;70.20
15314;BME280;7757;52.626;4.746;2023-05-21T06:07:57;101836.22;;;17.23;70.64
15314;BME280;7757;52.626;4.746;2023-05-21T06:10:22;101837.66;;;17.06;71.72
15314;BME280;7757;52.626;4.746;2023-05-21T06:12:48;101838.56;;;17.52;70.03
15314;BME280;7757;52.626;4.746;2023-05-21T06:15:13;101839.41;;;17.72;68.72
15314;BME280;7757;52.626;4.746;2023-05-21T06:17:39;101836.16;;;19.05;64.79
15314;BME280;7757;52.626;4.746;2023-05-21T06:20:06;101835.78;;;18.44;65.98
15314;BME280;7757;52.626;4.746;2023-05-21T06:22:33;101847.75;;;17.97;67.25
15314;BME280;7757;52.626;4.746;2023-05-21T06:24:58;101838.41;;;18.70;66.14
15314;BME280;7757;52.626;4.746;2023-05-21T06:27:23;101840.47;;;18.75;65.19
15314;BME280;7757;52.626;4.746;2023-05-21T06:29:49;101831.09;;;17.94;67.19
15314;BME280;7757;52.626;4.746;2023-05-21T06:32:14;101808.59;;;17.93;67.18
15314;BME280;7757;52.626;4.746;2023-05-21T06:34:40;101845.38;;;18.53;65.41
15314;BME280;7757;52.626;4.746;2023-05-21T06:37:05;101849.41;;;17.78;67.31
15314;BME280;7757;52.626;4.746;2023-05-21T06:39:30;101854.00;;;17.91;67.70
15314;BME280;7757;52.626;4.746;2023-05-21T06:41:56;101845.47;;;17.61;68.39
15314;BME280;7757;52.626;4.746;2023-05-21T06:44:21;101851.72;;;17.62;68.33
15314;BME280;7757;52.626;4.746;2023-05-21T06:46:47;101822.88;;;17.08;69.56
15314;BME280;7757;52.626;4.746;2023-05-21T06:49:12;101857.44;;;17.26;69.45
15314;BME280;7757;52.626;4.746;2023-05-21T06:51:38;101853.84;;;16.99;71.17
15314;BME280;7757;52.626;4.746;2023-05-21T06:54:03;101852.00;;;17.13;70.47
15314;BME280;7757;52.626;4.746;2023-05-21T06:56:28;101859.03;;;16.94;71.11
15314;BME280;7757;52.626;4.746;2023-05-21T06:58:54;101829.78;;;17.17;69.62
15314;BME280;7757;52.626;4.746;2023-05-21T07:01:19;101854.94;;;17.18;69.77
15314;BME280;7757;52.626;4.746;2023-05-21T07:03:46;101837.91;;;17.37;68.52
15314;BME280;7757;52.626;4.746;2023-05-21T07:06:12;101855.63;;;17.53;68.71
15314;BME280;7757;52.626;4.746;2023-05-21T07:08:37;101858.91;;;17.28;68.35
15314;BME280;7757;52.626;4.746;2023-05-21T07:11:03;101828.31;;;17.28;68.34
15314;BME280;7757;52.626;4.746;2023-05-21T07:13:29;101855.66;;;17.86;67.12
15314;BME280;7757;52.626;4.746;2023-05-21T07:15:54;101851.91;;;17.87;66.56
15314;BME280;7757;52.626;4.746;2023-05-21T07:18:19;101842.75;;;17.74;66.98
15314;BME280;7757;52.626;4.746;2023-05-21T07:20:45;101837.34;;;17.94;65.58
15314;BME280;7757;52.626;4.746;2023-05-21T07:23:10;101836.69;;;18.12;64.92
15314;BME280;7757;52.626;4.746;2023-05-21T07:25:35;101851.06;;;17.93;65.66
15314;BME280;7757;52.626;4.746;2023-05-21T07:28:01;101847.56;;;17.86;65.75
15314;BME280;7757;52.626;4.746;2023-05-21T07:30:26;101866.84;;;18.22;65.00
15314;BME280;7757;52.626;4.746;2023-05-21T07:32:52;101870.84;;;18.06;65.05
15314;BME280;7757;52.626;4.746;2023-05-21T07:35:18;101858.72;;;18.35;64.38
15314;BME280;7757;52.626;4.746;2023-05-21T07:37:43;101865.81;;;18.10;65.45
15314;BME280;7757;52.626;4.746;2023-05-21T07:40:10;101856.84;;;18.29;64.46
15314;BME280;7757;52.626;4.746;2023-05-21T07:42:36;101868.09;;;18.26;64.07
15314;BME280;7757;52.626;4.746;2023-05-21T07:45:01;101861.69;;;18.01;64.62
15314;BME280;7757;52.626;4.746;2023-05-21T07:47:27;101855.44;;;17.87;64.60
15314;BME280;7757;52.626;4.746;2023-05-21T07:49:52;101856.19;;;18.40;64.06
15314;BME280;7757;52.626;4.746;2023-05-21T07:52:17;101859.94;;;18.46;63.60
15314;BME280;7757;52.626;4.746;2023-05-21T07:54:43;101858.34;;;18.05;64.47
15314;BME280;7757;52.626;4.746;2023-05-21T07:57:08;101866.47;;;18.12;64.01
15314;BME280;7757;52.626;4.746;2023-05-21T07:59:34;101866.47;;;18.12;63.75
15314;BME280;7757;52.626;4.746;2023-05-21T08:01:59;101865.22;;;18.21;63.39
15314;BME280;7757;52.626;4.746;2023-05-21T08:04:31;101862.69;;;18.39;63.16
15314;BME280;7757;52.626;4.746;2023-05-21T08:06:56;101858.13;;;18.20;63.89
15314;BME280;7757;52.626;4.746;2023-05-21T08:09:24;101859.09;;;18.65;62.74
15314;BME280;7757;52.626;4.746;2023-05-21T08:11:50;101864.94;;;18.62;62.45
15314;BME280;7757;52.626;4.746;2023-05-21T08:14:16;101860.31;;;19.13;61.01
15314;BME280;7757;52.626;4.746;2023-05-21T08:16:42;101847.06;;;19.30;59.81
15314;BME280;7757;52.626;4.746;2023-05-21T08:19:09;101839.03;;;19.10;60.28
15314;BME280;7757;52.626;4.746;2023-05-21T08:21:34;101851.38;;;19.06;60.46
15314;BME280;7757;52.626;4.746;2023-05-21T08:24:01;101858.66;;;18.61;61.89
15314;BME280;7757;52.626;4.746;2023-05-21T08:26:27;101859.56;;;19.00;61.21
15314;BME280;7757;52.626;4.746;2023-05-21T08:28:56;101864.91;;;18.68;62.11
15314;BME280;7757;52.626;4.746;2023-05-21T08:31:21;101863.81;;;19.58;59.40
15314;BME280;7757;52.626;4.746;2023-05-21T08:33:51;101853.13;;;19.25;59.73
15314;BME280;7757;52.626;4.746;2023-05-21T08:36:17;101829.78;;;19.24;59.73
15314;BME280;7757;52.626;4.746;2023-05-21T08:38:42;101856.47;;;19.65;59.47
15314;BME280;7757;52.626;4.746;2023-05-21T08:41:10;101856.75;;;20.25;57.71
15314;BME280;7757;52.626;4.746;2023-05-21T08:43:36;101849.16;;;20.33;57.40
15314;BME280;7757;52.626;4.746;2023-05-21T08:46:07;101803.16;;;21.81;52.87
15314;BME280;7757;52.626;4.746;2023-05-21T08:48:36;101851.28;;;21.45;54.12
15314;BME280;7757;52.626;4.746;2023-05-21T08:51:03;101856.81;;;21.39;52.75
15314;BME280;7757;52.626;4.746;2023-05-21T08:53:28;101840.06;;;20.94;54.68
15314;BME280;7757;52.626;4.746;2023-05-21T08:55:55;101847.72;;;21.98;51.61
15314;BME280;7757;52.626;4.746;2023-05-21T08:58:21;101848.72;;;21.21;53.32
15314;BME280;7757;52.626;4.746;2023-05-21T09:00:47;101832.31;;;22.03;51.63
15314;BME280;7757;52.626;4.746;2023-05-21T09:03:13;101853.09;;;21.03;53.79
15314;BME280;7757;52.626;4.746;2023-05-21T09:05:40;101851.81;;;21.24;53.10
15314;BME280;7757;52.626;4.746;2023-05-21T09:10:39;101844.31;;;20.35;55.55
15314;BME280;7757;52.626;4.746;2023-05-21T09:13:05;101846.94;;;21.67;52.53
15314;BME280;7757;52.626;4.746;2023-05-21T09:15:32;101843.91;;;21.34;54.12
15314;BME280;7757;52.626;4.746;2023-05-21T09:17:57;101839.81;;;23.72;48.57
15314;BME280;7757;52.626;4.746;2023-05-21T09:20:24;101843.69;;;21.47;51.76
15314;BME280;7757;52.626;4.746;2023-05-21T09:22:51;101832.59;;;21.49;50.38
15314;BME280;7757;52.626;4.746;2023-05-21T09:25:25;101841.28;;;23.18;48.09
15314;BME280;7757;52.626;4.746;2023-05-21T09:27:57;101840.25;;;23.36;47.43
15314;BME280;7757;52.626;4.746;2023-05-21T09:30:24;101843.75;;;24.31;45.58
15314;BME280;7757;52.626;4.746;2023-05-21T09:32:58;101838.47;;;23.42;47.46
15314;BME280;7757;52.626;4.746;2023-05-21T09:35:24;101845.03;;;24.89;44.24
15314;BME280;7757;52.626;4.746;2023-05-21T09:37:51;101840.66;;;22.71;48.57
15314;BME280;7757;52.626;4.746;2023-05-21T09:40:22;101843.81;;;25.02;43.74
15314;BME280;7757;52.626;4.746;2023-05-21T09:42:53;101843.38;;;24.44;45.44
15314;BME280;7757;52.626;4.746;2023-05-21T09:45:19;101841.75;;;25.40;42.29
15314;BME280;7757;52.626;4.746;2023-05-21T09:47:46;101832.56;;;22.76;49.06
15314;BME280;7757;52.626;4.746;2023-05-21T09:50:15;101831.63;;;24.44;45.69
15314;BME280;7757;52.626;4.746;2023-05-21T09:52:41;101841.44;;;23.40;46.54
15314;BME280;7757;52.626;4.746;2023-05-21T09:55:11;101844.63;;;21.41;51.41
15314;BME280;7757;52.626;4.746;2023-05-21T09:57:57;101842.78;;;21.53;52.42
15314;BME280;7757;52.626;4.746;2023-05-21T10:00:24;101827.38;;;21.47;53.37
15314;BME280;7757;52.626;4.746;2023-05-21T10:02:56;101813.69;;;20.94;53.53
15314;BME280;7757;52.626;4.746;2023-05-21T10:05:26;101833.34;;;21.26;54.06
15314;BME280;7757;52.626;4.746;2023-05-21T10:07:56;101821.97;;;21.18;53.89
15314;BME280;7757;52.626;4.746;2023-05-21T10:10:23;101834.13;;;21.15;54.36
15314;BME280;7757;52.626;4.746;2023-05-21T10:13:00;101821.59;;;20.84;55.49
15314;BME280;7757;52.626;4.746;2023-05-21T10:15:33;101824.22;;;20.73;55.24
15314;BME280;7757;52.626;4.746;2023-05-21T10:18:00;101820.63;;;20.90;54.83
15314;BME280;7757;52.626;4.746;2023-05-21T10:20:26;101817.88;;;20.79;54.95
15314;BME280;7757;52.626;4.746;2023-05-21T10:22:54;101806.28;;;20.53;55.50
15314;BME280;7757;52.626;4.746;2023-05-21T10:25:20;101819.50;;;20.98;54.53
15314;BME280;7757;52.626;4.746;2023-05-21T10:27:47;101791.38;;;19.59;57.23
15314;BME280;7757;52.626;4.746;2023-05-21T10:30:16;101770.91;;;19.99;56.75
15314;BME280;7757;52.626;4.746;2023-05-21T10:32:46;101823.34;;;19.99;57.35
15314;BME280;7757;52.626;4.746;2023-05-21T10:35:15;101794.91;;;20.02;56.79
15314;BME280;7757;52.626;4.746;2023-05-21T10:37:42;101815.66;;;20.39;56.76
15314;BME280;7757;52.626;4.746;2023-05-21T10:40:09;101819.09;;;20.28;56.77
15314;BME280;7757;52.626;4.746;2023-05-21T10:42:49;101821.78;;;19.67;57.11
15314;BME280;7757;52.626;4.746;2023-05-21T10:48:26;101775.97;;;19.53;56.17
15314;BME280;7757;52.626;4.746;2023-05-21T10:51:17;101813.59;;;20.35;55.45
15314;BME280;7757;52.626;4.746;2023-05-21T10:56:51;101799.50;;;20.26;56.18
15314;BME280;7757;52.626;4.746;2023-05-21T10:59:41;101790.38;;;20.39;55.41
15314;BME280;7757;52.626;4.746;2023-05-21T11:02:08;101773.56;;;20.05;56.14
15314;BME280;7757;52.626;4.746;2023-05-21T11:04:43;101793.59;;;20.29;55.67
15314;BME280;7757;52.626;4.746;2023-05-21T11:07:10;101790.56;;;20.55;55.08
15314;BME280;7757;52.626;4.746;2023-05-21T11:09:37;101776.63;;;20.82;54.81
15314;BME280;7757;52.626;4.746;2023-05-21T11:12:05;101790.28;;;20.64;55.01
15314;BME280;7757;52.626;4.746;2023-05-21T11:17:14;101762.16;;;21.41;52.81
15314;BME280;7757;52.626;4.746;2023-05-21T11:19:44;101795.00;;;20.68;54.78
15314;BME280;7757;52.626;4.746;2023-05-21T11:22:27;101798.66;;;20.26;56.39
15314;BME280;7757;52.626;4.746;2023-05-21T11:24:54;101780.56;;;20.86;54.42
15314;BME280;7757;52.626;4.746;2023-05-21T11:27:41;101777.78;;;20.74;54.88
15314;BME280;7757;52.626;4.746;2023-05-21T11:30:17;101792.97;;;20.93;54.71
15314;BME280;7757;52.626;4.746;2023-05-21T11:38:19;101791.56;;;20.91;55.22
15314;BME280;7757;52.626;4.746;2023-05-21T11:40:51;101795.34;;;20.90;54.58
15314;BME280;7757;52.626;4.746;2023-05-21T11:43:20;101789.47;;;20.02;55.85
15314;BME280;7757;52.626;4.746;2023-05-21T11:45:46;101779.25;;;20.22;55.49
15314;BME280;7757;52.626;4.746;2023-05-21T11:48:12;101774.72;;;20.16;55.79
15314;BME280;7757;52.626;4.746;2023-05-21T11:50:38;101763.63;;;20.54;55.07
15314;BME280;7757;52.626;4.746;2023-05-21T11:53:06;101770.00;;;20.78;54.59
15314;BME280;7757;52.626;4.746;2023-05-21T11:55:37;101775.00;;;20.63;55.10
15314;BME280;7757;52.626;4.746;2023-05-21T11:58:07;101747.03;;;20.44;54.20
15314;BME280;7757;52.626;4.746;2023-05-21T12:00:37;101764.69;;;20.83;54.11
15314;BME280;7757;52.626;4.746;2023-05-21T12:03:07;101759.66;;;20.68;55.04
15314;BME280;7757;52.626;4.746;2023-05-21T12:05:47;101768.44;;;20.52;54.66
15314;BME280;7757;52.626;4.746;2023-05-21T12:08:19;101740.53;;;20.09;55.57
15314;BME280;7757;52.626;4.746;2023-05-21T12:10:45;101741.28;;;21.11;53.65
15314;BME280;7757;52.626;4.746;2023-05-21T12:13:11;101716.09;;;20.09;55.93
15314;BME280;7757;52.626;4.746;2023-05-21T12:15:36;101731.56;;;20.44;55.68
15314;BME280;7757;52.626;4.746;2023-05-21T12:18:02;101755.25;;;20.37;56.35
15314;BME280;7757;52.626;4.746;2023-05-21T12:20:27;101756.34;;;19.93;57.34
15314;BME280;7757;52.626;4.746;2023-05-21T12:22:53;101729.91;;;20.07;56.60
15314;BME280;7757;52.626;4.746;2023-05-21T12:25:19;101736.28;;;20.49;56.06
15314;BME280;7757;52.626;4.746;2023-05-21T12:27:48;101741.97;;;20.29;56.51
15314;BME280;7757;52.626;4.746;2023-05-21T12:30:21;101720.53;;;20.21;56.88
15314;BME280;7757;52.626;4.746;2023-05-21T12:32:48;101729.16;;;20.36;56.51
15314;BME280;7757;52.626;4.746;2023-05-21T12:35:22;101731.16;;;20.23;57.26
15314;BME280;7757;52.626;4.746;2023-05-21T12:37:48;101723.63;;;19.88;58.12
15314;BME280;7757;52.626;4.746;2023-05-21T12:40:15;101738.94;;;19.83;57.42
15314;BME280;7757;52.626;4.746;2023-05-21T12:42:43;101738.16;;;19.76;57.63
15314;BME280;7757;52.626;4.746;2023-05-21T12:45:12;101735.78;;;20.04;57.54
15314;BME280;7757;52.626;4.746;2023-05-21T12:47:38;101710.66;;;19.90;57.68
15314;BME280;7757;52.626;4.746;2023-05-21T12:50:08;101719.03;;;19.21;59.07
15314;BME280;7757;52.626;4.746;2023-05-21T12:52:42;101725.00;;;20.16;57.21
15314;BME280;7757;52.626;4.746;2023-05-21T12:55:08;101724.00;;;19.74;57.82
15314;BME280;7757;52.626;4.746;2023-05-21T12:57:36;101719.75;;;19.60;58.01
15314;BME280;7757;52.626;4.746;2023-05-21T13:00:08;101724.78;;;19.07;59.38
15314;BME280;7757;52.626;4.746;2023-05-21T13:02:42;101718.66;;;20.03;57.77
15314;BME280;7757;52.626;4.746;2023-05-21T13:05:17;101707.09;;;20.08;56.76
15314;BME280;7757;52.626;4.746;2023-05-21T13:07:44;101718.94;;;19.59;57.58
15314;BME280;7757;52.626;4.746;2023-05-21T13:10:14;101690.19;;;19.70;57.23
15314;BME280;7757;52.626;4.746;2023-05-21T13:12:40;101711.09;;;19.87;57.04
15314;BME280;7757;52.626;4.746;2023-05-21T13:15:06;101692.78;;;19.15;57.63
15314;BME280;7757;52.626;4.746;2023-05-21T13:17:32;101710.34;;;19.62;57.92
15314;BME280;7757;52.626;4.746;2023-05-21T13:20:12;101715.19;;;19.96;56.90
15314;BME280;7757;52.626;4.746;2023-05-21T13:22:39;101719.72;;;20.02;56.78